Time;durP1;ratioP1;P1;durP2;ratioP2;P2;SDS_P1;SDS_P2;PMS_P1;PMS_P2;Temp;Humidity;BMP_temperature;BMP_pressure;BME280_temperature;BME280_humidity;BME280_pressure;Samples;Min_cycle;Max_cycle;Signal;HPM_P1;HPM_P2
2023/05/31 00:01:31;;;;;;;198.77;64.97;;;;;;;17.61;54.44;102540.81;4980972;28;20023;-76
2023/05/31 00:03:56;;;;;;;194.88;64.18;;;;;;;17.61;54.30;102539.97;4964426;28;20026;-76
2023/05/31 00:06:22;;;;;;;195.85;64.78;;;;;;;17.60;54.55;102541.75;4974251;28;20030;-77
2023/05/31 00:08:47;;;;;;;195.68;63.85;;;;;;;17.60;54.56;102543.50;4977227;28;20073;-76
2023/05/31 00:11:13;;;;;;;215.65;68.32;;;;;;;17.59;54.38;102540.00;4991078;28;20376;-76
2023/05/31 00:13:41;;;;;;;203.35;65.72;;;;;;;17.59;54.00;102540.00;4992182;28;20317;-77
2023/05/31 00:16:07;;;;;;;197.68;64.72;;;;;;;17.58;54.73;102538.25;4989777;28;20022;-76
2023/05/31 00:18:32;;;;;;;199.63;65.38;;;;;;;17.57;54.16;102539.13;4961889;28;20037;-76
2023/05/31 00:20:58;;;;;;;199.60;65.90;;;;;;;17.57;55.00;102537.38;4990088;28;20030;-76
2023/05/31 00:23:23;;;;;;;198.30;63.80;;;;;;;17.56;54.71;102533.00;4995681;28;20488;-76
2023/05/31 00:25:48;;;;;;;193.90;63.67;;;;;;;17.56;54.89;102533.00;4972320;28;20031;-75
2023/05/31 00:28:14;;;;;;;199.68;66.20;;;;;;;17.56;54.82;102532.09;4985436;28;20105;-76
2023/05/31 00:30:39;;;;;;;194.68;63.83;;;;;;;17.55;55.19;102538.31;4991637;28;20479;-76
2023/05/31 00:33:05;;;;;;;197.55;64.93;;;;;;;17.54;55.34;102533.91;4975603;28;20023;-76
2023/05/31 00:35:30;;;;;;;199.73;65.30;;;;;;;17.55;56.36;102530.38;4973114;28;20549;-76
2023/05/31 00:37:55;;;;;;;210.45;66.68;;;;;;;17.54;56.14;102539.19;4987323;28;20031;-77
2023/05/31 00:40:21;;;;;;;198.30;65.03;;;;;;;17.53;56.56;102537.44;4984599;28;20400;-76
2023/05/31 00:42:46;;;;;;;199.38;64.03;;;;;;;17.53;56.53;102529.50;4989308;28;20508;-76
2023/05/31 00:45:11;;;;;;;198.13;64.40;;;;;;;17.53;55.90;102533.03;4975119;28;20491;-77
2023/05/31 00:47:37;;;;;;;193.93;63.33;;;;;;;17.53;56.34;102526.88;4989228;28;20026;-76
2023/05/31 00:50:03;;;;;;;194.50;65.07;;;;;;;17.53;56.43;102532.16;4974376;28;20033;-77
2023/05/31 00:52:29;;;;;;;196.73;64.60;;;;;;;17.54;56.59;102533.91;4972289;28;20030;-76
2023/05/31 00:54:55;;;;;;;198.48;63.55;;;;;;;17.52;56.82;102533.03;4985083;28;20538;-76
2023/05/31 00:57:20;;;;;;;200.18;64.88;;;;;;;17.53;56.43;102535.69;4984041;28;20022;-75
2023/05/31 00:59:46;;;;;;;190.73;64.53;;;;;;;17.52;56.90;102530.41;4989524;28;20081;-77
2023/05/31 01:02:11;;;;;;;204.75;65.03;;;;;;;17.52;56.51;102535.69;4978779;28;20029;-76
2023/05/31 01:04:37;;;;;;;189.32;63.35;;;;;;;17.52;56.68;102530.41;4971168;28;20057;-77
2023/05/31 01:07:03;;;;;;;197.50;63.85;;;;;;;17.51;56.51;102529.53;4979135;28;20106;-76
2023/05/31 01:09:30;;;;;;;198.27;64.32;;;;;;;17.52;56.33;102535.69;4976033;28;20113;-76
2023/05/31 01:12:14;;;;;;;203.15;66.35;;;;;;;17.51;56.11;102532.19;4964845;28;20523;-79
2023/05/31 01:15:35;;;;;;;206.77;65.88;;;;;;;17.52;56.04;102533.03;4975187;28;20042;-77
2023/05/31 01:18:26;;;;;;;199.93;64.43;;;;;;;17.50;56.29;102535.72;4917559;29;20094;-77
2023/05/31 01:20:56;;;;;;;200.65;65.07;;;;;;;17.51;56.08;102531.31;4976794;28;20039;-77
2023/05/31 01:23:58;;;;;;;196.82;64.18;;;;;;;17.51;56.68;102533.97;4972739;28;20532;-77
2023/05/31 01:26:36;;;;;;;206.73;66.72;;;;;;;17.50;56.60;102538.34;4981771;28;20438;-77
2023/05/31 01:29:05;;;;;;;202.60;64.90;;;;;;;17.49;56.05;102536.63;4965445;28;20483;-77
2023/05/31 01:31:31;;;;;;;195.50;63.80;;;;;;;17.50;55.63;102537.50;4971798;28;20033;-77
2023/05/31 01:33:57;;;;;;;199.15;64.63;;;;;;;17.50;55.92;102537.50;4973612;28;20027;-77
2023/05/31 01:36:22;;;;;;;211.60;67.07;;;;;;;17.49;55.94;102536.63;4987710;28;20410;-77
2023/05/31 01:38:48;;;;;;;199.25;65.03;;;;;;;17.48;55.52;102529.59;4986974;28;20041;-77
2023/05/31 01:41:14;;;;;;;202.63;67.22;;;;;;;17.49;55.88;102538.38;4973006;28;20100;-78
2023/05/31 01:43:41;;;;;;;194.93;63.20;;;;;;;17.48;55.76;102540.16;4977449;28;20065;-77
2023/05/31 01:46:08;;;;;;;202.38;66.60;;;;;;;17.48;56.15;102542.81;4989010;28;20026;-77
2023/05/31 01:48:33;;;;;;;208.10;66.85;;;;;;;17.48;56.03;102539.28;4988466;28;20388;-77
2023/05/31 01:50:59;;;;;;;205.50;66.93;;;;;;;17.47;55.84;102533.13;4985908;28;20033;-77
2023/05/31 01:53:25;;;;;;;193.70;66.03;;;;;;;17.46;56.17;102530.53;4971620;28;20456;-77
2023/05/31 01:55:50;;;;;;;197.05;64.90;;;;;;;17.46;56.30;102531.38;4991605;28;20022;-77
2023/05/31 01:58:16;;;;;;;194.35;63.35;;;;;;;17.46;55.70;102530.53;4982436;28;20033;-77
2023/05/31 02:00:42;;;;;;;198.00;64.00;;;;;;;17.44;56.08;102533.19;4981012;28;20085;-77
2023/05/31 02:03:08;;;;;;;195.10;64.82;;;;;;;17.44;56.09;102532.28;4986435;28;20037;-77
2023/05/31 02:05:33;;;;;;;196.30;65.13;;;;;;;17.44;56.58;102529.66;4971970;28;20023;-78
2023/05/31 02:07:59;;;;;;;200.90;65.10;;;;;;;17.44;56.40;102529.66;4982457;28;20026;-77
2023/05/31 02:10:24;;;;;;;194.80;64.88;;;;;;;17.42;56.23;102529.69;4982873;28;20492;-77
2023/05/31 02:12:54;;;;;;;199.45;66.28;;;;;;;17.42;56.71;102534.09;4983033;28;20503;-77
2023/05/31 02:15:20;;;;;;;198.57;64.85;;;;;;;17.40;56.44;102527.06;4988669;28;20060;-77
2023/05/31 02:17:50;;;;;;;199.90;64.75;;;;;;;17.40;56.50;102532.34;4971603;28;20085;-77
2023/05/31 02:20:16;;;;;;;197.38;65.05;;;;;;;17.40;56.13;102536.78;4967864;28;20023;-77
2023/05/31 02:22:42;;;;;;;194.73;64.97;;;;;;;17.39;56.96;102541.16;4989593;28;20026;-77
2023/05/31 02:25:16;;;;;;;196.02;64.85;;;;;;;17.39;56.74;102530.59;4960277;28;20030;-77
2023/05/31 02:27:42;;;;;;;201.75;64.20;;;;;;;17.40;56.13;102534.13;4954926;28;20030;-77
2023/05/31 02:30:09;;;;;;;192.80;63.15;;;;;;;17.38;56.44;102522.72;4986687;28;20408;-77
2023/05/31 02:32:37;;;;;;;196.77;64.63;;;;;;;17.38;56.55;102528.88;4968319;28;20042;-77
2023/05/31 02:35:10;;;;;;;200.75;65.32;;;;;;;17.38;56.91;102528.00;4989221;28;20033;-76
2023/05/31 02:37:37;;;;;;;203.70;65.88;;;;;;;17.36;56.48;102522.72;4980676;28;20030;-76
2023/05/31 02:40:08;;;;;;;202.05;65.47;;;;;;;17.37;56.53;102524.47;4987999;28;20034;-76
2023/05/31 02:42:41;;;;;;;197.23;65.35;;;;;;;17.36;56.41;102520.09;4987960;28;20026;-77
2023/05/31 02:45:08;;;;;;;193.70;63.17;;;;;;;17.35;57.06;102520.97;4978867;28;20400;-76
2023/05/31 02:47:35;;;;;;;212.23;67.32;;;;;;;17.36;56.97;102520.09;4963229;28;20031;-76
2023/05/31 02:50:00;;;;;;;190.63;62.95;;;;;;;17.36;56.70;102525.38;4990558;28;20034;-76
2023/05/31 02:52:26;;;;;;;204.60;65.80;;;;;;;17.37;57.42;102527.13;4990665;28;20031;-76
2023/05/31 02:54:51;;;;;;;194.68;64.30;;;;;;;17.37;56.60;102526.25;4994898;28;20072;-76
2023/05/31 02:57:17;;;;;;;194.18;65.00;;;;;;;17.36;57.02;102519.22;4985425;28;20059;-78
2023/05/31 02:59:46;;;;;;;195.18;63.70;;;;;;;17.36;57.06;102521.88;4990822;28;20030;-78
2023/05/31 03:02:11;;;;;;;196.63;64.60;;;;;;;17.36;56.89;102516.59;4963385;28;20022;-76
2023/05/31 03:04:37;;;;;;;196.90;64.68;;;;;;;17.36;56.36;102517.44;4992563;28;20048;-76
2023/05/31 03:07:02;;;;;;;195.68;65.40;;;;;;;17.36;56.65;102520.09;4984718;28;20054;-76
2023/05/31 03:09:28;;;;;;;202.90;65.22;;;;;;;17.35;56.61;102515.69;4976057;28;20472;-77
2023/05/31 03:11:53;;;;;;;193.18;64.97;;;;;;;17.36;56.96;102514.81;4973923;28;20035;-76
2023/05/31 03:14:19;;;;;;;215.43;68.72;;;;;;;17.37;57.14;102511.28;4976051;28;20025;-76
2023/05/31 03:16:45;;;;;;;198.70;65.85;;;;;;;17.37;57.04;102511.28;4970979;28;20044;-76
2023/05/31 03:19:12;;;;;;;206.98;66.47;;;;;;;17.37;57.15;102511.28;4974072;28;20053;-76
2023/05/31 03:21:37;;;;;;;197.52;65.38;;;;;;;17.37;56.52;102513.91;4987546;28;20024;-78
2023/05/31 03:24:03;;;;;;;202.95;64.45;;;;;;;17.38;57.17;102512.13;5030297;22;20408;-71
2023/05/31 03:26:28;;;;;;;193.98;62.63;;;;;;;17.38;57.22;102515.66;5020026;28;20022;-71
2023/05/31 03:28:53;;;;;;;198.15;64.43;;;;;;;17.38;56.76;102518.31;5028404;28;20438;-71
2023/05/31 03:31:19;;;;;;;196.80;63.58;;;;;;;17.41;56.92;102522.69;5028986;28;20031;-71
2023/05/31 03:33:44;;;;;;;192.75;62.05;;;;;;;17.41;56.84;102517.41;5030571;28;20403;-71
2023/05/31 03:36:10;;;;;;;197.55;63.75;;;;;;;17.41;56.49;102512.13;5032732;28;20033;-71
2023/05/31 03:38:35;;;;;;;193.50;62.30;;;;;;;17.43;56.88;102512.09;5030343;28;20056;-71
2023/05/31 03:41:01;;;;;;;197.50;62.40;;;;;;;17.42;56.95;102508.56;5031020;28;20025;-71
2023/05/31 03:43:26;;;;;;;193.55;62.03;;;;;;;17.44;56.72;102508.53;5013710;28;20430;-71
2023/05/31 03:45:51;;;;;;;198.38;62.92;;;;;;;17.44;57.02;102512.06;5039799;28;20024;-71
2023/05/31 03:48:16;;;;;;;196.98;63.03;;;;;;;17.45;56.82;102512.91;5031970;28;20056;-71
2023/05/31 03:50:43;;;;;;;195.15;62.95;;;;;;;17.47;56.39;102517.28;5028733;28;20479;-72
2023/05/31 03:53:08;;;;;;;207.60;64.75;;;;;;;17.48;56.96;102516.41;5027400;28;20175;-71
2023/05/31 03:55:34;;;;;;;196.18;63.70;;;;;;;17.49;56.31;102509.31;5027703;28;20116;-72
2023/05/31 03:57:59;;;;;;;192.30;62.65;;;;;;;17.51;56.19;102510.19;5029612;28;20102;-71
2023/05/31 04:00:25;;;;;;;199.50;63.63;;;;;;;17.52;56.50;102511.91;5028044;28;20103;-71
2023/05/31 04:02:51;;;;;;;193.95;62.97;;;;;;;17.54;56.22;102512.78;5030507;28;20032;-71
2023/05/31 04:05:16;;;;;;;194.50;62.75;;;;;;;17.55;56.37;102509.25;5030739;28;20546;-71
2023/05/31 04:07:41;;;;;;;190.60;62.40;;;;;;;17.56;56.08;102517.13;5031383;28;20086;-72
2023/05/31 04:10:07;;;;;;;190.13;62.50;;;;;;;17.58;55.89;102511.81;5026966;28;20025;-72
2023/05/31 04:12:33;;;;;;;198.98;63.28;;;;;;;17.58;56.27;102510.03;5031448;28;20021;-72
2023/05/31 04:14:58;;;;;;;198.07;64.28;;;;;;;17.61;55.61;102513.53;5031289;28;20037;-71
2023/05/31 04:17:24;;;;;;;197.68;63.50;;;;;;;17.61;56.13;102517.03;5029759;28;20036;-71
2023/05/31 04:19:50;;;;;;;196.88;63.00;;;;;;;17.64;55.71;102513.47;5038227;28;20025;-71
2023/05/31 04:22:15;;;;;;;195.95;63.40;;;;;;;17.64;56.26;102509.09;5030444;28;20033;-71
2023/05/31 04:24:41;;;;;;;204.68;65.63;;;;;;;17.66;55.29;102512.56;5022709;28;20049;-72
2023/05/31 04:27:07;;;;;;;192.02;64.00;;;;;;;17.68;55.79;102513.44;5032704;28;20041;-72
2023/05/31 04:29:32;;;;;;;199.18;63.72;;;;;;;17.69;55.79;102511.63;5029015;28;20029;-71
2023/05/31 04:31:59;;;;;;;197.35;62.85;;;;;;;17.69;55.46;102512.50;5027575;28;20380;-71
2023/05/31 04:34:26;;;;;;;203.02;63.33;;;;;;;17.71;55.40;102512.47;5031140;28;20282;-72
2023/05/31 04:36:52;;;;;;;198.45;64.15;;;;;;;17.72;55.51;102512.47;5028516;28;20021;-72
2023/05/31 04:39:19;;;;;;;205.43;65.05;;;;;;;17.73;55.30;102514.19;5028162;28;20112;-72
2023/05/31 04:41:45;;;;;;;192.98;63.20;;;;;;;17.74;54.98;102510.66;5027248;28;20040;-72
2023/05/31 04:44:10;;;;;;;216.50;67.07;;;;;;;17.77;55.38;102514.16;5026939;28;20394;-72
2023/05/31 04:46:36;;;;;;;200.38;63.33;;;;;;;17.78;55.62;102515.88;5028409;28;20588;-72
2023/05/31 04:49:04;;;;;;;193.05;61.85;;;;;;;17.79;55.04;102513.22;5017043;28;20038;-72
2023/05/31 04:51:30;;;;;;;215.70;66.28;;;;;;;17.81;55.38;102515.84;5006686;28;20501;-72
2023/05/31 04:53:56;;;;;;;195.32;62.78;;;;;;;17.82;54.81;102517.56;5028357;28;20121;-72
2023/05/31 04:56:21;;;;;;;190.23;62.47;;;;;;;17.83;54.48;102514.94;5028297;28;20025;-72
2023/05/31 04:58:47;;;;;;;194.07;61.88;;;;;;;17.82;55.05;102517.56;5029322;28;20029;-72
2023/05/31 05:01:15;;;;;;;203.30;75.57;;;;;;;17.81;55.00;102523.78;5021502;28;20033;-71
2023/05/31 05:03:41;;;;;;;229.20;126.85;;;;;;;17.81;55.24;102515.84;5005336;28;20406;-71
2023/05/31 05:06:16;;;;;;;213.73;65.35;;;;;;;17.81;55.34;102511.44;5025177;28;20036;-72
2023/05/31 05:08:42;;;;;;;199.68;62.97;;;;;;;17.84;55.55;102521.06;5010411;28;20021;-72
2023/05/31 05:11:08;;;;;;;204.57;65.00;;;;;;;17.84;55.16;102515.78;5020743;28;20029;-72
2023/05/31 05:13:33;;;;;;;205.90;65.32;;;;;;;17.86;55.30;102517.50;5027392;28;20021;-72
2023/05/31 05:15:58;;;;;;;215.75;65.40;;;;;;;17.89;54.74;102520.09;5011465;28;20029;-72
2023/05/31 05:18:24;;;;;;;214.00;80.80;;;;;;;17.90;54.93;102518.31;5005426;28;20067;-73
2023/05/31 05:20:49;;;;;;;200.73;64.75;;;;;;;17.94;54.68;102522.66;5018151;28;20486;-72
2023/05/31 05:23:15;;;;;;;197.65;63.25;;;;;;;17.96;54.90;102520.03;5029807;28;20033;-72
2023/05/31 05:25:40;;;;;;;198.55;64.63;;;;;;;18.00;55.06;102516.44;5028491;28;20052;-72
2023/05/31 05:28:05;;;;;;;198.00;62.83;;;;;;;18.04;54.84;102518.97;5030986;28;20090;-71
2023/05/31 05:30:32;;;;;;;205.10;64.80;;;;;;;18.09;54.92;102516.22;5023475;28;20083;-72
2023/05/31 05:32:57;;;;;;;195.43;63.88;;;;;;;18.15;54.55;102516.13;5046021;28;20021;-72
2023/05/31 05:35:23;;;;;;;195.57;64.43;;;;;;;18.20;54.24;102522.19;5028766;28;20026;-72
2023/05/31 05:37:48;;;;;;;195.75;63.35;;;;;;;18.25;54.12;102522.09;5029417;28;20030;-72
2023/05/31 05:40:13;;;;;;;196.43;62.45;;;;;;;18.30;53.65;102514.94;5030168;28;20422;-71
2023/05/31 05:42:39;;;;;;;200.10;63.80;;;;;;;18.35;54.07;102518.38;5030901;28;20482;-72
2023/05/31 05:45:06;;;;;;;213.27;65.47;;;;;;;18.41;53.51;102512.94;5027518;28;20056;-71
2023/05/31 05:47:32;;;;;;;214.23;67.07;;;;;;;18.47;53.87;102513.75;5024857;28;20491;-71
2023/05/31 05:49:57;;;;;;;200.05;63.53;;;;;;;18.53;53.62;102510.97;5011310;28;20052;-72
2023/05/31 05:52:23;;;;;;;186.07;60.72;;;;;;;18.59;52.91;102510.84;5020937;28;20053;-71
2023/05/31 05:54:48;;;;;;;198.65;63.30;;;;;;;18.65;53.25;102516.00;5025317;28;20433;-71
2023/05/31 05:57:13;;;;;;;195.38;61.70;;;;;;;18.68;53.02;102513.28;5036501;28;20462;-71
2023/05/31 05:59:40;;;;;;;194.23;62.95;;;;;;;18.74;52.39;102513.16;5027197;28;20431;-72
2023/05/31 06:02:06;;;;;;;229.30;69.35;;;;;;;18.80;51.86;102514.81;5021197;28;20030;-70
2023/05/31 06:04:31;;;;;;;218.20;66.30;;;;;;;18.84;51.94;102505.00;5017316;28;20387;-71
2023/05/31 06:06:57;;;;;;;220.57;66.70;;;;;;;18.88;51.17;102506.72;5022560;28;20075;-71
2023/05/31 06:09:22;;;;;;;222.80;68.28;;;;;;;18.91;51.67;102507.53;5024396;28;20021;-71
2023/05/31 06:11:47;;;;;;;201.02;63.47;;;;;;;18.98;51.43;102508.25;5023470;28;20145;-71
2023/05/31 06:14:12;;;;;;;229.50;69.22;;;;;;;19.14;50.59;102510.53;5024380;28;20124;-71
2023/05/31 06:16:38;;;;;;;215.13;65.82;;;;;;;19.60;50.15;102501.47;5029258;28;20025;-71
2023/05/31 06:19:03;;;;;;;207.20;64.82;;;;;;;20.18;48.66;102498.19;5032800;28;20029;-71
2023/05/31 06:21:29;;;;;;;219.30;67.22;;;;;;;20.56;47.50;102499.75;5027527;28;20083;-72
2023/05/31 06:23:54;;;;;;;203.93;64.32;;;;;;;20.85;46.28;102494.50;5031636;28;20082;-71
2023/05/31 06:26:19;;;;;;;198.55;64.57;;;;;;;21.07;46.09;102487.59;5030382;28;20040;-73
2023/05/31 06:28:45;;;;;;;202.23;63.97;;;;;;;21.19;45.38;102486.31;5034515;28;20064;-73
2023/05/31 06:31:10;;;;;;;197.20;63.70;;;;;;;21.34;45.50;102484.94;5033665;28;20060;-70
2023/05/31 06:33:36;;;;;;;220.13;68.22;;;;;;;21.52;44.66;102479.94;5020767;28;20044;-71
2023/05/31 06:36:02;;;;;;;196.73;63.85;;;;;;;21.75;44.16;102476.50;5029277;28;20102;-69
2023/05/31 06:38:27;;;;;;;217.30;68.78;;;;;;;21.90;43.79;102475.09;5030544;28;20025;-71
2023/05/31 06:40:52;;;;;;;205.38;66.50;;;;;;;21.98;43.67;102478.34;5032261;28;20084;-73
2023/05/31 06:43:18;;;;;;;203.15;66.47;;;;;;;22.09;43.61;102470.84;5031569;28;20057;-72
2023/05/31 06:45:43;;;;;;;204.75;66.40;;;;;;;22.24;42.98;102471.19;5030256;28;20021;-71
2023/05/31 06:48:09;;;;;;;203.20;66.93;;;;;;;22.38;43.03;102466.25;5032291;28;20071;-73
2023/05/31 06:50:34;;;;;;;200.40;66.90;;;;;;;22.45;42.83;102458.88;5011505;28;20158;-72
2023/05/31 06:53:00;;;;;;;212.43;68.03;;;;;;;22.53;42.17;102458.59;5029295;28;20025;-72
2023/05/31 06:55:25;;;;;;;197.32;67.10;;;;;;;22.55;42.15;102460.28;5016364;28;20029;-72
2023/05/31 06:57:50;;;;;;;196.50;65.47;;;;;;;22.58;42.06;102461.97;5033527;28;20029;-72
2023/05/31 07:00:17;;;;;;;197.98;66.35;;;;;;;22.68;42.15;102458.00;5017090;28;20394;-72
2023/05/31 07:02:42;;;;;;;197.35;65.80;;;;;;;22.76;42.03;102457.69;5027469;28;20025;-71
2023/05/31 07:05:07;;;;;;;200.18;68.10;;;;;;;22.86;41.21;102458.19;5031063;28;20036;-71
2023/05/31 07:07:33;;;;;;;206.40;67.18;;;;;;;22.94;41.61;102448.09;5027703;28;20028;-72
2023/05/31 07:09:58;;;;;;;203.75;68.03;;;;;;;22.95;41.23;102455.16;5022239;28;20025;-71
2023/05/31 07:12:23;;;;;;;208.50;69.45;;;;;;;22.96;41.10;102457.75;5024127;28;20397;-71
2023/05/31 07:14:49;;;;;;;202.18;68.03;;;;;;;23.12;40.82;102458.03;5030395;28;20122;-71
2023/05/31 07:17:14;;;;;;;200.57;67.38;;;;;;;23.29;40.89;102459.97;5016986;28;20061;-72
2023/05/31 07:19:44;;;;;;;202.20;68.00;;;;;;;23.44;40.09;102461.13;5029327;28;20017;-72
2023/05/31 07:22:09;;;;;;;202.23;68.00;;;;;;;23.60;40.23;102464.00;5031450;28;20017;-72
2023/05/31 07:24:35;;;;;;;203.27;67.95;;;;;;;23.70;39.94;102469.81;5039926;28;20047;-71
2023/05/31 07:27:00;;;;;;;202.70;68.68;;;;;;;23.68;39.56;102466.31;5028137;28;20049;-74
2023/05/31 07:29:25;;;;;;;202.18;67.10;;;;;;;24.00;39.37;102460.56;5032496;28;20060;-73
2023/05/31 07:31:51;;;;;;;213.93;69.85;;;;;;;24.16;39.26;102458.91;5034211;28;20056;-73
2023/05/31 07:34:16;;;;;;;220.05;71.88;;;;;;;24.03;39.51;102457.72;5030581;28;20052;-74
2023/05/31 07:36:41;;;;;;;204.70;68.20;;;;;;;24.06;38.87;102447.75;5013994;28;20036;-73
2023/05/31 07:39:10;;;;;;;207.15;70.78;;;;;;;24.14;39.11;102445.59;5027244;28;20044;-73
2023/05/31 07:41:36;;;;;;;209.95;69.18;;;;;;;24.11;38.71;102440.41;5027442;28;20047;-73
2023/05/31 07:44:02;;;;;;;205.10;68.68;;;;;;;24.26;38.26;102438.84;5015267;28;20017;-73
2023/05/31 07:46:28;;;;;;;206.07;68.70;;;;;;;24.31;37.98;102444.00;5019944;28;20021;-72
2023/05/31 07:48:54;;;;;;;203.48;68.68;;;;;;;24.30;38.16;102437.75;5013952;28;20486;-72
2023/05/31 07:51:19;;;;;;;211.25;69.65;;;;;;;24.35;38.18;102442.00;5027389;28;20384;-72
2023/05/31 07:53:45;;;;;;;205.00;68.88;;;;;;;24.25;37.67;102449.59;5030679;28;20060;-71
2023/05/31 07:56:10;;;;;;;207.43;70.22;;;;;;;24.20;37.91;102446.28;5034843;28;20025;-71
2023/05/31 07:58:36;;;;;;;199.90;67.82;;;;;;;24.37;36.82;102437.50;5031743;28;20044;-72
2023/05/31 08:01:01;;;;;;;206.25;68.93;;;;;;;24.24;37.31;102448.75;5031870;28;20021;-72
2023/05/31 08:03:27;;;;;;;200.80;68.13;;;;;;;24.36;38.07;102436.59;5030103;28;20386;-71
2023/05/31 08:05:52;;;;;;;199.52;68.28;;;;;;;24.56;38.06;102443.66;5030652;28;20041;-72
2023/05/31 08:08:17;;;;;;;209.95;69.13;;;;;;;24.77;37.07;102432.91;5028956;28;20030;-71
2023/05/31 08:10:43;;;;;;;202.88;68.50;;;;;;;24.90;36.15;102439.38;5030336;28;20040;-72
2023/05/31 08:13:09;;;;;;;201.95;67.60;;;;;;;24.90;35.95;102441.22;5030917;28;20173;-72
2023/05/31 08:15:34;;;;;;;197.95;69.25;;;;;;;24.93;36.21;102441.06;5031725;28;20471;-72
2023/05/31 08:18:00;;;;;;;201.20;68.78;;;;;;;24.75;36.59;102441.00;5028882;28;20033;-72
2023/05/31 08:20:26;;;;;;;195.38;65.40;;;;;;;24.85;36.26;102437.88;5030374;28;20079;-72
2023/05/31 08:22:52;;;;;;;206.32;68.65;;;;;;;24.77;36.03;102433.81;5031938;28;20459;-74
2023/05/31 08:25:18;;;;;;;200.05;67.13;;;;;;;24.95;35.88;102440.03;5016202;28;20025;-72
2023/05/31 08:27:44;;;;;;;198.85;67.45;;;;;;;24.91;36.17;102435.78;5025640;28;20475;-71
2023/05/31 08:30:10;;;;;;;207.45;71.07;;;;;;;24.90;36.58;102431.38;5032070;28;20030;-72
2023/05/31 08:32:36;;;;;;;208.15;68.80;;;;;;;24.88;36.77;102435.94;5026650;28;20074;-72
2023/05/31 08:35:02;;;;;;;216.90;69.82;;;;;;;24.80;36.40;102436.31;5037731;28;20379;-72
2023/05/31 08:37:27;;;;;;;219.52;71.90;;;;;;;24.89;36.88;102434.13;5019839;28;20083;-72
2023/05/31 08:39:52;;;;;;;202.57;67.82;;;;;;;24.84;36.90;102433.47;5020128;28;20049;-72
2023/05/31 08:42:47;;;;;;;216.60;106.57;;;;;;;24.81;37.57;102431.81;5031145;28;20028;-72
2023/05/31 08:45:12;;;;;;;200.98;67.68;;;;;;;24.78;37.60;102432.84;5024971;28;20113;-72
2023/05/31 08:47:51;;;;;;;211.55;71.45;;;;;;;24.80;37.67;102420.28;5009578;28;20112;-71
2023/05/31 08:50:17;;;;;;;205.68;70.32;;;;;;;24.77;37.19;102423.13;5008937;28;20104;-72
2023/05/31 08:52:43;;;;;;;211.40;70.35;;;;;;;24.80;37.00;102428.28;5025701;28;20085;-71
2023/05/31 08:55:09;;;;;;;201.00;69.50;;;;;;;24.69;37.31;102427.09;5013357;28;20025;-71
2023/05/31 08:57:35;;;;;;;198.95;69.05;;;;;;;24.57;38.15;102423.16;5013254;28;20036;-72
2023/05/31 09:00:07;;;;;;;201.50;69.07;;;;;;;24.48;37.65;102420.00;5030383;28;20483;-72
2023/05/31 09:02:33;;;;;;;204.57;69.53;;;;;;;24.48;38.57;102420.00;5007211;28;20025;-72
2023/05/31 09:04:58;;;;;;;224.10;74.13;;;;;;;24.61;37.74;102422.06;5018086;28;20087;-72
2023/05/31 09:07:24;;;;;;;197.27;69.75;;;;;;;24.67;37.50;102424.50;5024675;28;20060;-70
2023/05/31 09:09:49;;;;;;;243.45;76.00;;;;;;;24.56;38.20;102414.28;5008163;28;20060;-72
2023/05/31 09:12:14;;;;;;;202.13;69.97;;;;;;;24.51;37.94;102404.78;5010296;28;20037;-72
2023/05/31 09:14:40;;;;;;;198.02;69.20;;;;;;;24.50;38.00;102411.03;5023566;28;20049;-70
2023/05/31 09:17:05;;;;;;;201.18;70.30;;;;;;;24.84;38.13;102399.59;5023815;28;20033;-72
2023/05/31 09:19:31;;;;;;;192.65;68.32;;;;;;;24.63;38.54;102391.72;5008245;28;20030;-71
2023/05/31 09:21:56;;;;;;;200.48;70.95;;;;;;;24.37;39.24;102400.09;5008314;28;20027;-71
2023/05/31 09:24:22;;;;;;;215.23;72.32;;;;;;;24.80;38.16;102393.56;5020806;22;20417;-76
2023/05/31 09:26:49;;;;;;;199.35;70.40;;;;;;;26.17;35.67;102391.84;4964798;28;20030;-76
2023/05/31 09:29:16;;;;;;;192.30;68.75;;;;;;;27.04;33.66;102383.28;4968120;28;20038;-75
2023/05/31 09:31:42;;;;;;;204.43;70.18;;;;;;;27.56;32.32;102384.66;4962569;28;20038;-76
2023/05/31 09:34:24;;;;;;;213.13;71.53;;;;;;;28.15;31.85;102386.34;4963210;28;20031;-75
2023/05/31 09:36:52;;;;;;;191.33;67.37;;;;;;;28.66;30.78;102375.88;4969023;28;20231;-75
2023/05/31 09:39:17;;;;;;;185.60;66.00;;;;;;;28.78;30.92;102381.38;4972316;28;20127;-75
2023/05/31 09:41:42;;;;;;;193.07;69.65;;;;;;;28.87;30.11;102378.06;4977190;28;20109;-78
2023/05/31 09:44:08;;;;;;;202.73;72.25;;;;;;;28.98;30.60;102385.41;4966619;28;20073;-76
2023/05/31 09:46:34;;;;;;;189.95;70.75;;;;;;;28.96;29.78;102380.13;4962594;28;20022;-76
2023/05/31 09:49:06;;;;;;;188.85;69.28;;;;;;;28.90;30.67;102377.00;4951458;28;20038;-76
2023/05/31 09:51:32;;;;;;;190.52;68.95;;;;;;;28.99;29.93;102379.06;4968445;28;20015;-75
2023/05/31 09:54:01;;;;;;;201.35;71.15;;;;;;;28.90;29.88;102366.25;4957882;28;20105;-76
2023/05/31 09:56:27;;;;;;;178.07;68.25;;;;;;;28.83;30.42;102372.03;4964505;28;20027;-75
2023/05/31 09:58:56;;;;;;;213.80;73.03;;;;;;;28.72;30.71;102379.97;4965686;28;20496;-75
2023/05/31 10:01:21;;;;;;;181.93;67.88;;;;;;;28.48;30.88;102366.31;4963117;28;20430;-74
2023/05/31 10:03:50;;;;;;;196.50;72.28;;;;;;;28.18;31.61;102367.34;4969864;28;20132;-75
2023/05/31 10:06:17;;;;;;;183.73;68.50;;;;;;;27.80;31.33;102370.63;4964058;28;20118;-75
2023/05/31 10:08:43;;;;;;;206.93;74.43;;;;;;;27.30;30.21;102362.09;4960930;28;20435;-77
2023/05/31 10:11:12;;;;;;;197.63;71.63;;;;;;;26.65;32.85;102360.53;4967360;28;20034;-74
2023/05/31 10:13:41;;;;;;;191.63;69.57;;;;;;;26.21;33.22;102361.28;4964386;28;20074;-74
2023/05/31 10:16:08;;;;;;;187.65;68.85;;;;;;;25.80;34.41;102367.94;4965508;28;20042;-75
2023/05/31 10:18:35;;;;;;;191.43;71.05;;;;;;;25.35;35.33;102364.97;4963018;28;20134;-75
2023/05/31 10:21:08;;;;;;;207.27;72.95;;;;;;;24.94;35.59;102359.94;4964600;28;20208;-73
2023/05/31 10:23:45;;;;;;;184.90;67.15;;;;;;;24.64;36.61;102368.56;4968290;28;20465;-74
2023/05/31 10:26:17;;;;;;;214.43;70.65;;;;;;;24.30;37.47;102367.50;4950405;28;20121;-75
2023/05/31 10:28:56;;;;;;;197.98;67.53;;;;;;;24.04;37.70;102366.91;4971415;28;20037;-75
2023/05/31 10:31:22;;;;;;;194.13;66.97;;;;;;;23.80;38.19;102361.75;4956417;28;20034;-75
2023/05/31 10:33:53;;;;;;;185.57;65.97;;;;;;;23.54;39.26;102362.91;4973983;28;20036;-75
2023/05/31 10:36:19;;;;;;;185.93;67.03;;;;;;;23.35;39.49;102360.22;4965800;28;20512;-75
2023/05/31 10:38:57;;;;;;;185.32;68.95;;;;;;;23.13;40.35;102363.81;4963585;28;20035;-75
2023/05/31 10:41:27;;;;;;;184.90;68.32;;;;;;;22.96;40.75;102371.66;4965683;28;20074;-75
2023/05/31 10:44:02;;;;;;;187.25;67.28;;;;;;;22.82;40.93;102360.69;4970475;28;20043;-75
2023/05/31 10:46:29;;;;;;;183.25;66.80;;;;;;;22.61;41.83;102356.16;4970003;28;20050;-75
2023/05/31 10:48:56;;;;;;;186.45;68.43;;;;;;;22.49;41.79;102350.50;4964790;28;20041;-75
2023/05/31 10:51:41;;;;;;;188.00;67.88;;;;;;;22.34;42.17;102342.19;4981281;28;20124;-75
2023/05/31 10:54:06;;;;;;;;;;;;;;;22.21;42.92;102338.22;4971025;28;20027;-76
2023/05/31 10:56:32;;;;;;;188.98;66.72;;;;;;;22.09;42.49;102337.78;4969327;28;20334;-75
2023/05/31 10:58:57;;;;;;;185.13;67.53;;;;;;;22.04;42.46;102336.25;4961120;28;20055;-75
2023/05/31 11:01:28;;;;;;;192.07;69.25;;;;;;;21.97;43.09;102330.28;4961929;28;20031;-73